createdAt,value
2019-02-02T05:00:25.728Z,0
2019-02-02T05:03:53.626Z,0
2019-02-02T05:07:22.514Z,0
2019-02-02T05:10:50.415Z,0
2019-02-02T05:14:18.355Z,0
2019-02-02T05:17:46.263Z,0
2019-02-02T05:21:14.175Z,0
2019-02-02T05:24:42.093Z,0
2019-02-02T05:28:09.984Z,0
2019-02-02T05:31:37.896Z,0
2019-02-02T05:35:05.798Z,0
2019-02-02T05:38:33.712Z,0
2019-02-02T05:42:01.607Z,0
2019-02-02T05:45:29.528Z,0
2019-02-02T05:48:57.429Z,0
2019-02-02T05:52:25.320Z,0
2019-02-02T05:55:53.259Z,0
2019-02-02T05:59:21.166Z,0
2019-02-02T06:02:49.053Z,0
2019-02-02T06:06:16.959Z,0
2019-02-02T06:09:44.871Z,0
2019-02-02T06:13:13.769Z,0
2019-02-02T06:16:41.650Z,0
2019-02-02T06:20:09.552Z,0
2019-02-02T06:23:37.490Z,0
2019-02-02T06:27:05.385Z,0
2019-02-02T06:30:33.296Z,0
2019-02-02T06:34:01.205Z,0
2019-02-02T06:37:29.089Z,0
2019-02-02T06:40:57.025Z,0
2019-02-02T06:44:24.938Z,0
2019-02-02T06:47:52.840Z,0
2019-02-02T06:51:20.712Z,0
2019-02-02T06:54:48.600Z,0
2019-02-02T06:58:16.497Z,0
2019-02-02T07:01:44.408Z,0
2019-02-02T07:05:12.305Z,5.625
2019-02-02T07:08:41.197Z,5.625
2019-02-02T07:12:09.081Z,5.625
2019-02-02T07:15:36.997Z,5.625
2019-02-02T07:19:04.918Z,5.625
2019-02-02T07:22:32.828Z,11.25
2019-02-02T07:26:00.724Z,11.25
2019-02-02T07:29:29.238Z,16.875
2019-02-02T07:32:57.145Z,16.875
2019-02-02T07:36:25.033Z,16.875
2019-02-02T07:39:52.944Z,16.875
2019-02-02T07:43:20.852Z,16.875
2019-02-02T07:46:48.742Z,16.875
2019-02-02T07:50:17.625Z,16.875
2019-02-02T07:53:45.543Z,16.875
2019-02-02T07:57:13.446Z,16.875
2019-02-02T08:00:43.320Z,16.875
2019-02-02T08:04:11.244Z,22.5
2019-02-02T08:07:39.165Z,16.875
2019-02-02T08:11:07.108Z,16.875
2019-02-02T08:14:35.090Z,16.875
2019-02-02T08:18:03.086Z,16.875
2019-02-02T08:21:30.976Z,16.875
2019-02-02T08:24:59.878Z,16.875
2019-02-02T08:28:27.794Z,16.875
2019-02-02T08:31:55.674Z,22.5
2019-02-02T08:35:23.614Z,28.125
2019-02-02T08:38:51.529Z,28.125
2019-02-02T08:42:20.415Z,33.75
2019-02-02T08:45:48.317Z,33.75
2019-02-02T08:49:16.214Z,33.75
2019-02-02T08:52:44.095Z,28.125
2019-02-02T08:56:12.010Z,28.125
2019-02-02T08:59:39.969Z,28.125
2019-02-02T09:03:07.817Z,22.5
2019-02-02T09:06:39.687Z,22.5
2019-02-02T09:10:07.582Z,22.5
2019-02-02T09:13:36.949Z,28.125
2019-02-02T09:17:04.355Z,33.75
2019-02-02T09:20:32.273Z,33.75
2019-02-02T09:24:00.192Z,39.375
2019-02-02T09:27:28.124Z,39.375
2019-02-02T09:30:56.022Z,39.375
2019-02-02T09:34:23.923Z,33.75
2019-02-02T09:37:52.803Z,33.75
2019-02-02T09:41:20.731Z,33.75
2019-02-02T09:44:48.739Z,33.75
2019-02-02T09:48:16.748Z,28.125
2019-02-02T09:51:44.651Z,28.125
2019-02-02T09:55:13.545Z,33.75
2019-02-02T09:58:41.449Z,33.75
2019-02-02T10:02:09.385Z,28.125
2019-02-02T10:05:37.412Z,28.125
2019-02-02T10:09:06.293Z,33.75
2019-02-02T10:12:34.245Z,39.375
2019-02-02T10:16:02.159Z,45
2019-02-02T10:19:31.050Z,45
2019-02-02T10:22:58.995Z,45
2019-02-02T10:26:26.895Z,39.375
2019-02-02T10:29:54.842Z,33.75
2019-02-02T10:33:22.732Z,39.375
2019-02-02T10:36:50.728Z,39.375
2019-02-02T10:40:18.952Z,50.625
2019-02-02T10:43:46.884Z,50.625
2019-02-02T10:47:14.806Z,45
2019-02-02T10:50:42.734Z,39.375
2019-02-02T10:54:11.630Z,45
2019-02-02T10:57:39.604Z,61.875
2019-02-02T11:01:07.629Z,61.875
2019-02-02T11:04:35.643Z,67.5
2019-02-02T11:08:03.708Z,61.875
2019-02-02T11:11:31.374Z,67.5
2019-02-02T11:14:59.272Z,61.875
2019-02-02T11:18:27.368Z,67.5
2019-02-02T11:21:55.253Z,67.5
2019-02-02T11:25:23.167Z,67.5
2019-02-02T11:28:52.139Z,67.5
2019-02-02T11:32:20.091Z,61.875
2019-02-02T11:35:48.027Z,67.5
2019-02-02T11:39:15.943Z,61.875
2019-02-02T11:42:44.973Z,45
2019-02-02T11:46:12.919Z,39.375
2019-02-02T11:49:40.795Z,50.625
2019-02-02T11:53:08.698Z,56.25
2019-02-02T11:56:36.736Z,56.25
2019-02-02T12:00:04.607Z,50.625
2019-02-02T12:03:32.540Z,45
2019-02-02T12:07:00.483Z,50.625
2019-02-02T12:10:28.435Z,50.625
2019-02-02T12:13:56.416Z,45
2019-02-02T12:17:24.376Z,45
2019-02-02T12:20:52.319Z,45
2019-02-02T12:24:20.273Z,45
2019-02-02T12:27:48.189Z,39.375
2019-02-02T12:31:16.120Z,28.125
2019-02-02T12:34:44.023Z,33.75
2019-02-02T12:38:12.917Z,28.125
2019-02-02T12:41:40.816Z,28.125
2019-02-02T12:45:08.727Z,28.125
2019-02-02T12:48:36.617Z,22.5
2019-02-02T12:52:04.522Z,28.125
2019-02-02T12:55:32.431Z,28.125
2019-02-02T12:59:00.318Z,28.125
2019-02-02T13:02:38.012Z,28.125
2019-02-02T13:06:03.080Z,28.125
2019-02-02T13:09:31.014Z,22.5
2019-02-02T13:12:58.901Z,22.5
2019-02-02T13:16:26.862Z,16.875
2019-02-02T13:19:54.782Z,16.875
2019-02-02T13:23:22.780Z,16.875
2019-02-02T13:26:50.775Z,11.25
2019-02-02T13:30:18.748Z,11.25
2019-02-02T13:33:46.750Z,11.25
2019-02-02T13:37:15.793Z,11.25
2019-02-02T13:40:44.010Z,11.25
2019-02-02T13:44:12.061Z,11.25
2019-02-02T13:47:41.115Z,11.25
2019-02-02T13:51:10.067Z,11.25
2019-02-02T13:54:38.025Z,11.25
2019-02-02T13:58:06.408Z,11.25
2019-02-02T14:01:41.876Z,11.25
2019-02-02T14:05:08.721Z,11.25
2019-02-02T14:08:37.866Z,11.25
2019-02-02T14:12:05.832Z,11.25
2019-02-02T14:15:33.965Z,11.25
2019-02-02T14:19:02.950Z,5.625
2019-02-02T14:22:31.188Z,5.625
2019-02-02T14:25:59.144Z,5.625
2019-02-02T14:29:27.090Z,5.625
2019-02-02T14:32:56.993Z,5.625
2019-02-02T14:36:24.899Z,5.625
2019-02-02T14:39:53.891Z,5.625
2019-02-02T14:43:22.811Z,5.625
2019-02-02T14:46:50.727Z,5.625
2019-02-02T14:50:20.628Z,5.625
2019-02-02T14:53:49.496Z,5.625
2019-02-02T14:57:17.403Z,0
2019-02-02T15:00:45.363Z,0
2019-02-02T15:04:13.281Z,0
2019-02-02T15:07:41.276Z,0
2019-02-02T15:11:09.434Z,0
2019-02-02T15:14:37.335Z,0
2019-02-02T15:18:05.265Z,0
2019-02-02T15:21:33.288Z,0
2019-02-02T15:25:01.233Z,0
2019-02-02T15:28:29.194Z,0
2019-02-02T15:31:57.207Z,0
2019-02-02T15:35:25.177Z,0
2019-02-02T15:38:53.117Z,0
2019-02-02T15:42:22.004Z,0
2019-02-02T15:45:50.004Z,0
2019-02-02T15:49:18.049Z,0
2019-02-02T15:52:46.991Z,0
2019-02-02T15:56:15.152Z,0
2019-02-02T15:59:43.115Z,0
2019-02-02T16:03:11.020Z,0
2019-02-02T16:06:38.969Z,0
2019-02-02T16:10:06.920Z,0
2019-02-02T16:13:34.830Z,0
2019-02-02T16:17:02.812Z,0
2019-02-02T16:20:30.811Z,0
2019-02-02T16:23:58.708Z,0
2019-02-02T16:27:26.687Z,0
2019-02-02T16:30:54.679Z,0
2019-02-02T16:34:22.614Z,0
2019-02-02T16:37:50.555Z,0
2019-02-02T16:41:18.615Z,0
2019-02-02T16:44:47.510Z,0
2019-02-02T16:48:15.517Z,0
2019-02-02T16:51:43.442Z,0
2019-02-02T16:55:11.377Z,0
2019-02-02T16:58:40.348Z,0
2019-02-02T17:02:08.354Z,0
2019-02-02T17:05:36.270Z,0
2019-02-02T17:09:05.506Z,0
2019-02-02T17:12:33.500Z,0
2019-02-02T17:16:01.478Z,0
2019-02-02T17:19:29.418Z,0
2019-02-02T17:22:57.376Z,0
2019-02-02T17:26:25.297Z,0
2019-02-02T17:29:53.271Z,0
2019-02-02T17:33:21.212Z,0
2019-02-02T17:36:49.122Z,0
2019-02-02T17:40:17.049Z,0
2019-02-02T17:43:44.995Z,0
2019-02-02T17:47:13.322Z,0
2019-02-02T17:50:42.142Z,0
2019-02-02T17:54:10.117Z,0
2019-02-02T17:57:38.058Z,0
2019-02-02T18:01:05.993Z,0
2019-02-02T18:04:43.121Z,0
2019-02-02T18:08:09.744Z,0
2019-02-02T18:11:37.671Z,0
2019-02-02T18:15:05.633Z,0
2019-02-02T18:18:33.597Z,0
2019-02-02T18:22:01.585Z,0
2019-02-02T18:25:29.538Z,0
2019-02-02T18:28:58.510Z,0
2019-02-02T18:32:26.442Z,0
2019-02-02T18:35:54.436Z,0
2019-02-02T18:39:22.375Z,0
2019-02-02T18:42:50.350Z,0
2019-02-02T18:46:18.385Z,0
2019-02-02T18:49:46.321Z,0
2019-02-02T18:53:14.237Z,0
2019-02-02T18:56:42.143Z,0
2019-02-02T19:00:10.068Z,0
2019-02-02T19:03:37.986Z,0
2019-02-02T19:07:05.936Z,0
2019-02-02T19:10:33.943Z,0
2019-02-02T19:14:01.965Z,0
2019-02-02T19:17:29.871Z,0
2019-02-02T19:20:57.949Z,0
2019-02-02T19:24:25.938Z,0
2019-02-02T19:27:53.857Z,0
2019-02-02T19:31:21.767Z,0
2019-02-02T19:34:49.712Z,0
2019-02-02T19:38:17.859Z,0
2019-02-02T19:41:45.795Z,0
2019-02-02T19:45:13.715Z,0
2019-02-02T19:48:41.761Z,0
2019-02-02T19:52:10.472Z,0
2019-02-02T19:55:38.395Z,0
2019-02-02T19:59:06.385Z,0
2019-02-02T20:02:34.317Z,0
2019-02-02T20:06:02.396Z,0
2019-02-02T20:09:32.312Z,0
2019-02-02T20:13:00.293Z,0
2019-02-02T20:16:28.305Z,0
2019-02-02T20:19:56.780Z,0
2019-02-02T20:23:25.493Z,0
2019-02-02T20:26:53.432Z,0
2019-02-02T20:30:21.372Z,0
2019-02-02T20:33:49.310Z,0
2019-02-02T20:37:18.230Z,0
2019-02-02T20:40:46.169Z,0
2019-02-02T20:44:14.196Z,0
2019-02-02T20:47:42.266Z,0
2019-02-02T20:51:10.242Z,0
2019-02-02T20:54:38.161Z,0
2019-02-02T20:58:06.356Z,0
2019-02-02T21:01:34.443Z,0
2019-02-02T21:05:02.448Z,0
2019-02-02T21:08:37.097Z,0
2019-02-02T21:12:05.120Z,0
2019-02-02T21:15:33.138Z,0
2019-02-02T21:19:01.074Z,0
2019-02-02T21:22:29.069Z,0
2019-02-02T21:25:57.299Z,0
2019-02-02T21:29:25.358Z,0
2019-02-02T21:32:53.345Z,0
2019-02-02T21:36:22.115Z,0
2019-02-02T21:39:50.163Z,0
2019-02-02T21:43:19.075Z,0
2019-02-02T21:46:48.000Z,0
2019-02-02T21:50:15.914Z,0
2019-02-02T21:53:43.883Z,0
2019-02-02T21:57:11.800Z,0
2019-02-02T22:00:39.710Z,0
2019-02-02T22:04:07.620Z,0
2019-02-02T22:07:36.167Z,0
2019-02-02T22:11:04.093Z,0
2019-02-02T22:14:33.706Z,0
2019-02-02T22:18:01.766Z,0
2019-02-02T22:21:29.761Z,0
2019-02-02T22:24:57.676Z,0
2019-02-02T22:28:25.724Z,0
2019-02-02T22:31:53.660Z,0
2019-02-02T22:35:21.689Z,0
2019-02-02T22:38:49.704Z,0
2019-02-02T22:42:18.415Z,0
2019-02-02T22:45:46.322Z,0
2019-02-02T22:49:14.238Z,0
2019-02-02T22:52:43.025Z,0
2019-02-02T22:56:10.964Z,0
2019-02-02T22:59:38.937Z,0
